ADDS TAF Data INFO
IDs: Format: Raw Decoded Include METARs

Data at: 1309 UTC 22 Nov 2017

KTCS 221253Z AUTO 30005KT 10SM CLR 03/M07 A3039 RMK AO2 SLP253 T00331072

KTCS 221139Z 2212/2312 01006KT P6SM BKN250
  FM221600 17005KT P6SM SCT250
  FM230200 27005KT P6SM FEW250